createdAt,value
2022-08-04T00:01:44.082Z,39.68
2022-08-04T00:04:28.148Z,40.79
2022-08-04T00:07:10.237Z,39.79
2022-08-04T00:09:57.082Z,39.04
2022-08-04T00:12:31.464Z,38.88
2022-08-04T00:15:04.166Z,38.99
2022-08-04T00:17:41.321Z,40.22
2022-08-04T00:20:18.677Z,40.08
2022-08-04T00:22:49.468Z,40.46
2022-08-04T00:25:20.197Z,41.87
2022-08-04T00:27:50.512Z,41.58
2022-08-04T00:30:22.811Z,40.33
2022-08-04T00:32:53.607Z,40.74
2022-08-04T00:35:24.487Z,40.96
2022-08-04T00:37:55.903Z,41.37
2022-08-04T00:40:31.407Z,41.51
2022-08-04T00:43:20.794Z,42.15
2022-08-04T00:46:18.029Z,41.66
2022-08-04T00:48:59.820Z,42.40
2022-08-04T00:51:43.772Z,41.65
2022-08-04T00:54:35.983Z,41.88
2022-08-04T00:57:45.653Z,42.35
2022-08-04T01:00:16.728Z,43.71
2022-08-04T01:03:00.113Z,42.90
2022-08-04T01:05:48.872Z,44.11
2022-08-04T01:08:28.214Z,43.11
2022-08-04T01:11:01.500Z,44.18
2022-08-04T01:14:03.323Z,43.43
2022-08-04T01:16:33.163Z,43.99
2022-08-04T01:19:12.588Z,43.22
2022-08-04T01:22:19.940Z,43.39
2022-08-04T01:25:21.464Z,43.70
2022-08-04T01:28:12.019Z,43.01
2022-08-04T01:30:46.439Z,43.95
2022-08-04T01:33:18.865Z,44.09
2022-08-04T01:35:58.633Z,43.40
2022-08-04T01:38:37.800Z,44.36
2022-08-04T01:41:15.937Z,43.65
2022-08-04T01:43:47.365Z,44.81
2022-08-04T01:46:18.920Z,44.47
2022-08-04T01:48:54.748Z,44.16
2022-08-04T01:51:26.794Z,44.88
2022-08-04T01:53:57.359Z,44.93
2022-08-04T01:56:30.037Z,45.70
2022-08-04T01:59:01.378Z,45.75
2022-08-04T02:01:36.643Z,45.56
2022-08-04T02:04:20.425Z,46.00
2022-08-04T02:07:18.581Z,45.02
2022-08-04T02:09:55.392Z,45.77
2022-08-04T02:12:28.415Z,45.88
2022-08-04T02:15:24.404Z,46.09
2022-08-04T02:18:26.051Z,46.81
2022-08-04T02:21:05.380Z,46.38
2022-08-04T02:23:41.604Z,46.51
2022-08-04T02:26:22.767Z,46.64
2022-08-04T02:29:12.564Z,45.98
2022-08-04T02:31:45.641Z,45.82
2022-08-04T02:34:45.127Z,45.94
2022-08-04T02:37:22.280Z,46.51
2022-08-04T02:39:54.976Z,45.81
2022-08-04T02:42:29.450Z,45.84
2022-08-04T02:45:01.303Z,47.00
2022-08-04T02:48:08.083Z,46.18
2022-08-04T02:50:29.173Z,46.66
2022-08-04T02:53:03.187Z,46.70
2022-08-04T02:55:34.648Z,46.73
2022-08-04T02:58:13.517Z,46.64
2022-08-04T03:00:45.413Z,46.86
2022-08-04T03:03:25.370Z,46.48
2022-08-04T03:06:10.367Z,46.80
2022-08-04T03:08:47.178Z,46.40
2022-08-04T03:11:22.516Z,46.85
2022-08-04T03:14:06.104Z,47.03
2022-08-04T03:17:16.552Z,46.66
2022-08-04T03:20:02.282Z,47.42
2022-08-04T03:23:13.169Z,46.75
2022-08-04T03:26:14.502Z,47.46
2022-08-04T03:29:02.535Z,47.97
2022-08-04T03:31:36.214Z,47.83
2022-08-04T03:34:27.299Z,47.53
2022-08-04T03:37:20.781Z,48.23
2022-08-04T03:40:09.774Z,47.81
2022-08-04T03:42:58.941Z,48.60
2022-08-04T03:45:51.259Z,47.84
2022-08-04T03:48:59.291Z,48.42
2022-08-04T03:52:01.739Z,48.14
2022-08-04T03:54:44.908Z,48.77
2022-08-04T03:57:43.049Z,47.91
2022-08-04T04:00:18.492Z,48.07
2022-08-04T04:02:58.834Z,47.99
2022-08-04T04:06:00.035Z,47.88
2022-08-04T04:08:53.686Z,47.33
2022-08-04T04:12:00.258Z,47.85
2022-08-04T04:14:44.427Z,47.91
2022-08-04T04:17:19.414Z,47.82
2022-08-04T04:20:08.787Z,47.21
2022-08-04T04:22:55.774Z,47.30
2022-08-04T04:25:42.919Z,46.57
2022-08-04T04:28:46.123Z,46.59
2022-08-04T04:31:48.669Z,46.98
2022-08-04T04:34:23.994Z,47.00
2022-08-04T04:37:28.143Z,47.01
2022-08-04T04:39:59.991Z,46.77
2022-08-04T04:43:01.669Z,46.68
2022-08-04T04:45:32.006Z,46.45
2022-08-04T04:48:12.904Z,46.40
2022-08-04T04:51:05.370Z,45.57
2022-08-04T04:54:00.087Z,44.77
2022-08-04T04:56:41.506Z,43.77
2022-08-04T04:59:16.024Z,43.38
2022-08-04T05:01:47.433Z,42.64
2022-08-04T05:04:48.883Z,42.29
2022-08-04T05:07:53.179Z,41.49
2022-08-04T05:10:28.311Z,41.22
2022-08-04T05:14:38.057Z,40.97
2022-08-04T05:16:24.301Z,40.57
2022-08-04T05:19:04.236Z,40.65
2022-08-04T05:21:35.436Z,40.48
2022-08-04T05:24:07.422Z,40.03
2022-08-04T05:26:40.045Z,39.77
2022-08-04T05:29:10.216Z,39.54
2022-08-04T05:31:44.290Z,38.99
2022-08-04T05:34:21.177Z,38.26
2022-08-04T05:36:59.600Z,38.57
2022-08-04T05:39:34.345Z,38.18
2022-08-04T05:42:05.072Z,37.60
2022-08-04T05:44:39.435Z,38.15
2022-08-04T05:47:09.076Z,36.98
2022-08-04T05:49:38.888Z,36.68
2022-08-04T05:52:10.173Z,35.92
2022-08-04T05:54:39.295Z,36.01
2022-08-04T05:57:09.091Z,36.02
2022-08-04T05:59:46.604Z,35.75
2022-08-04T06:02:16.957Z,34.69
2022-08-04T06:04:49.190Z,34.39
2022-08-04T06:07:18.770Z,34.42
2022-08-04T06:09:50.600Z,34.75
2022-08-04T06:12:22.303Z,33.95
2022-08-04T06:14:54.963Z,33.75
2022-08-04T06:18:33.594Z,33.50
2022-08-04T06:20:23.342Z,33.54
2022-08-04T06:22:54.661Z,33.47
2022-08-04T06:25:25.795Z,33.18
2022-08-04T06:27:55.303Z,32.67
2022-08-04T06:30:27.005Z,32.63
2022-08-04T06:33:03.622Z,33.06
2022-08-04T06:35:35.106Z,32.56
2022-08-04T06:38:03.753Z,31.89
2022-08-04T06:40:34.397Z,32.31
2022-08-04T06:43:06.265Z,32.09
2022-08-04T06:45:37.682Z,31.87
2022-08-04T06:48:07.219Z,31.57
2022-08-04T06:51:24.917Z,31.40
2022-08-04T06:53:26.542Z,31.57
2022-08-04T06:55:54.930Z,31.15
2022-08-04T06:58:23.916Z,31.22
2022-08-04T07:00:55.751Z,30.75
2022-08-04T07:03:25.024Z,30.91
2022-08-04T07:05:53.488Z,30.87
2022-08-04T07:08:24.599Z,30.60
2022-08-04T07:10:54.373Z,30.29
2022-08-04T07:13:22.918Z,30.54
2022-08-04T07:15:51.120Z,30.68
2022-08-04T07:18:19.552Z,30.24
2022-08-04T07:20:48.782Z,30.05
2022-08-04T07:23:21.591Z,29.73
2022-08-04T07:25:59.911Z,29.19
2022-08-04T07:28:42.268Z,28.80
2022-08-04T07:31:33.528Z,28.96
2022-08-04T07:34:16.575Z,28.33
2022-08-04T07:36:55.596Z,28.15
2022-08-04T07:39:30.149Z,28.07
2022-08-04T07:42:02.256Z,28.12
2022-08-04T07:44:32.462Z,27.64
2022-08-04T07:47:02.196Z,27.27
2022-08-04T07:49:52.172Z,27.17
2022-08-04T07:52:18.763Z,26.94
2022-08-04T07:54:47.841Z,26.61
2022-08-04T07:57:39.756Z,26.40
2022-08-04T08:00:09.105Z,26.25
2022-08-04T08:02:39.671Z,26.14
2022-08-04T08:05:13.782Z,25.82
2022-08-04T08:07:50.496Z,25.55
2022-08-04T08:10:25.604Z,25.15
2022-08-04T08:12:53.755Z,24.99
2022-08-04T08:15:26.707Z,25.10
2022-08-04T08:17:58.664Z,25.08
2022-08-04T08:20:32.596Z,25.00
2022-08-04T08:23:02.221Z,24.62
2022-08-04T08:25:32.841Z,24.21
2022-08-04T08:28:04.993Z,24.26
2022-08-04T08:30:34.194Z,24.23
2022-08-04T08:33:06.206Z,24.31
2022-08-04T08:35:53.776Z,24.08
2022-08-04T08:38:41.344Z,24.05
2022-08-04T08:41:32.137Z,24.29
2022-08-04T08:44:19.128Z,24.46
2022-08-04T08:47:07.677Z,24.37
2022-08-04T08:50:00.374Z,23.88
2022-08-04T08:53:01.333Z,23.64
2022-08-04T08:55:33.812Z,23.31
2022-08-04T08:58:40.939Z,23.05
2022-08-04T09:01:56.928Z,23.07
2022-08-04T09:04:46.732Z,22.71
2022-08-04T09:07:45.116Z,22.92
2022-08-04T09:10:40.367Z,23.05
2022-08-04T09:13:23.707Z,22.58
2022-08-04T09:16:18.339Z,22.49
2022-08-04T09:19:37.626Z,22.77
2022-08-04T09:22:21.043Z,22.39
2022-08-04T09:25:25.442Z,22.44
2022-08-04T09:27:56.326Z,22.45
2022-08-04T09:30:38.005Z,22.29
2022-08-04T09:33:22.513Z,22.11
2022-08-04T09:36:13.870Z,21.79
2022-08-04T09:39:22.637Z,21.63
2022-08-04T09:42:09.985Z,21.71
2022-08-04T09:45:06.488Z,22.06
2022-08-04T09:47:53.613Z,21.88
2022-08-04T09:50:49.775Z,22.30
2022-08-04T09:53:42.734Z,21.71
2022-08-04T09:56:23.537Z,21.65
2022-08-04T09:59:21.110Z,21.45
2022-08-04T10:01:59.997Z,20.98
2022-08-04T10:04:31.046Z,20.80
2022-08-04T10:07:37.127Z,21.15
2022-08-04T10:10:08.641Z,21.82
2022-08-04T10:13:07.496Z,22.07
2022-08-04T10:16:01.380Z,21.79
2022-08-04T10:18:59.524Z,21.45
2022-08-04T10:22:27.000Z,20.97
2022-08-04T10:24:56.537Z,21.00
2022-08-04T10:27:33.377Z,21.07
2022-08-04T10:30:12.130Z,21.00
2022-08-04T10:33:02.523Z,20.90
2022-08-04T10:35:36.059Z,20.25
2022-08-04T10:38:07.354Z,21.47
2022-08-04T10:40:44.889Z,21.34
2022-08-04T10:43:20.788Z,20.99
2022-08-04T10:45:58.833Z,20.77
2022-08-04T10:48:42.268Z,21.02
2022-08-04T10:51:58.293Z,20.72
2022-08-04T10:54:48.350Z,20.67
2022-08-04T10:57:25.721Z,20.17
2022-08-04T11:00:03.607Z,19.81
2022-08-04T11:02:47.311Z,20.23
2022-08-04T11:05:25.760Z,19.91
2022-08-04T11:08:00.238Z,19.39
2022-08-04T11:10:33.975Z,19.04
2022-08-04T11:13:05.558Z,18.97
2022-08-04T11:15:49.103Z,18.46
2022-08-04T11:18:26.228Z,18.71
2022-08-04T11:21:09.684Z,18.32
2022-08-04T11:23:41.092Z,18.43
2022-08-04T11:26:24.927Z,17.90
2022-08-04T11:29:03.857Z,17.83
2022-08-04T11:31:35.714Z,17.68
2022-08-04T11:34:32.879Z,17.87
2022-08-04T11:37:18.341Z,18.61
2022-08-04T11:39:52.146Z,18.66
2022-08-04T11:42:29.426Z,18.36
2022-08-04T11:45:04.621Z,18.56
2022-08-04T11:47:40.331Z,18.73
2022-08-04T11:50:35.118Z,18.71
2022-08-04T11:53:04.362Z,18.66
2022-08-04T11:55:33.219Z,18.61
2022-08-04T11:58:22.066Z,18.31
2022-08-04T12:00:55.997Z,17.88
2022-08-04T12:03:39.141Z,18.16
2022-08-04T12:06:22.306Z,18.15
2022-08-04T12:09:13.150Z,18.02
2022-08-04T12:12:01.642Z,18.20
2022-08-04T12:14:44.866Z,18.17
2022-08-04T12:17:16.458Z,18.01
2022-08-04T12:20:04.278Z,17.79
2022-08-04T12:22:48.843Z,18.28
2022-08-04T12:25:31.001Z,18.44
2022-08-04T12:28:26.443Z,18.27
2022-08-04T12:31:19.796Z,17.58
2022-08-04T12:34:09.860Z,18.29
2022-08-04T12:36:45.177Z,17.95
2022-08-04T12:39:20.658Z,17.90
2022-08-04T12:41:51.938Z,17.64
2022-08-04T12:44:36.156Z,17.52
2022-08-04T12:47:26.835Z,17.40
2022-08-04T12:50:03.967Z,17.17
2022-08-04T12:55:33.947Z,16.94
2022-08-04T12:58:04.694Z,17.34
2022-08-04T13:00:41.207Z,17.39
2022-08-04T13:03:14.284Z,17.37
2022-08-04T13:05:43.062Z,17.29
2022-08-04T13:08:12.110Z,17.56
2022-08-04T13:10:46.522Z,17.14
2022-08-04T13:13:28.208Z,17.30
2022-08-04T13:16:03.815Z,17.33
2022-08-04T13:18:35.646Z,17.55
2022-08-04T13:21:20.333Z,17.86
2022-08-04T13:24:19.218Z,17.96
2022-08-04T13:27:05.201Z,17.58
2022-08-04T13:29:59.371Z,17.12
2022-08-04T13:32:31.620Z,16.91
2022-08-04T13:35:01.926Z,17.47
2022-08-04T13:37:36.499Z,17.31
2022-08-04T13:40:08.157Z,17.00
2022-08-04T13:42:36.816Z,16.96
2022-08-04T13:45:06.961Z,17.09
2022-08-04T13:47:38.291Z,17.47
2022-08-04T13:50:20.804Z,17.17
2022-08-04T13:52:53.078Z,16.92
2022-08-04T13:55:25.359Z,16.90
2022-08-04T13:57:59.961Z,16.88
2022-08-04T14:00:48.385Z,17.00
2022-08-04T14:03:24.926Z,17.60
2022-08-04T14:06:21.533Z,17.80
2022-08-04T14:09:00.891Z,17.77
2022-08-04T14:12:10.198Z,17.49
2022-08-04T14:14:30.309Z,17.34
2022-08-04T14:17:18.074Z,17.01
2022-08-04T14:19:49.944Z,16.57
2022-08-04T14:22:30.028Z,16.54
2022-08-04T14:24:59.427Z,16.48
2022-08-04T14:27:51.434Z,16.86
2022-08-04T14:30:27.727Z,16.77
2022-08-04T14:34:01.505Z,17.12
2022-08-04T14:36:01.687Z,16.90
2022-08-04T14:38:58.494Z,16.83
2022-08-04T14:41:34.514Z,16.56
2022-08-04T14:44:03.931Z,16.64
2022-08-04T14:46:52.948Z,16.79
2022-08-04T14:49:21.866Z,16.56
2022-08-04T14:51:59.182Z,16.83
2022-08-04T14:54:28.715Z,17.02
2022-08-04T14:57:02.628Z,17.25
2022-08-04T15:00:01.589Z,17.28
2022-08-04T15:02:32.534Z,17.36
2022-08-04T15:05:59.877Z,17.22
2022-08-04T15:07:50.286Z,17.48
2022-08-04T15:10:20.007Z,17.80
2022-08-04T15:12:48.131Z,17.68
2022-08-04T15:15:35.951Z,17.40
2022-08-04T15:18:04.179Z,17.35
2022-08-04T15:20:32.293Z,16.96
2022-08-04T15:23:05.052Z,16.75
2022-08-04T15:25:39.592Z,17.29
2022-08-04T15:28:14.355Z,17.21
2022-08-04T15:30:44.513Z,17.08
2022-08-04T15:33:21.991Z,16.94
2022-08-04T15:36:13.202Z,17.32
2022-08-04T15:38:51.784Z,16.85
2022-08-04T15:41:55.553Z,17.11
2022-08-04T15:44:51.614Z,18.13
2022-08-04T15:47:20.896Z,17.58
2022-08-04T15:50:04.082Z,17.45
2022-08-04T15:53:12.401Z,17.56
2022-08-04T15:55:44.136Z,17.64
2022-08-04T15:58:14.438Z,17.53
2022-08-04T16:00:49.328Z,17.72
2022-08-04T16:04:00.189Z,17.72
2022-08-04T16:06:20.890Z,17.35
2022-08-04T16:08:52.630Z,17.20
2022-08-04T16:11:31.584Z,17.47
2022-08-04T16:14:04.134Z,17.17
2022-08-04T16:16:38.696Z,17.92
2022-08-04T16:19:13.792Z,18.09
2022-08-04T16:22:01.082Z,17.65
2022-08-04T16:24:37.674Z,17.91
2022-08-04T16:27:09.691Z,17.96
2022-08-04T16:29:42.919Z,17.80
2022-08-04T16:32:13.317Z,17.76
2022-08-04T16:35:05.086Z,17.64
2022-08-04T16:37:43.655Z,17.74
2022-08-04T16:40:33.695Z,17.72
2022-08-04T16:43:07.414Z,17.71
2022-08-04T16:45:41.214Z,17.76
2022-08-04T16:48:10.603Z,18.59
2022-08-04T16:51:06.804Z,18.40
2022-08-04T16:53:52.729Z,19.09
2022-08-04T16:56:33.463Z,19.30
2022-08-04T16:59:07.480Z,19.12
2022-08-04T17:01:37.220Z,19.08
2022-08-04T17:04:05.674Z,18.82
2022-08-04T17:06:35.153Z,19.05
2022-08-04T17:09:14.503Z,19.14
2022-08-04T17:11:44.070Z,19.23
2022-08-04T17:14:13.069Z,19.09
2022-08-04T17:16:43.032Z,19.30
2022-08-04T17:19:24.469Z,19.56
2022-08-04T17:22:02.851Z,19.35
2022-08-04T17:24:38.442Z,19.64
2022-08-04T17:28:10.379Z,19.51
2022-08-04T17:29:56.751Z,19.83
2022-08-04T17:32:25.535Z,19.73
2022-08-04T17:34:57.506Z,19.67
2022-08-04T17:37:40.639Z,19.53
2022-08-04T17:40:18.402Z,19.68
2022-08-04T17:44:01.564Z,19.91
2022-08-04T17:46:28.880Z,19.80
2022-08-04T17:49:07.891Z,20.33
2022-08-04T17:52:05.946Z,20.42
2022-08-04T17:54:36.559Z,20.43
2022-08-04T17:57:21.885Z,20.61
2022-08-04T17:59:57.959Z,21.15
2022-08-04T18:02:33.839Z,21.42
2022-08-04T18:05:06.908Z,21.70
2022-08-04T18:08:40.082Z,22.18
2022-08-04T18:10:51.606Z,22.12
2022-08-04T18:13:28.140Z,22.60
2022-08-04T18:16:14.299Z,22.63
2022-08-04T18:19:10.583Z,22.90
2022-08-04T18:21:46.126Z,22.74
2022-08-04T18:24:35.113Z,22.55
2022-08-04T18:27:17.759Z,23.09
2022-08-04T18:30:14.767Z,24.09
2022-08-04T18:32:36.475Z,24.55
2022-08-04T18:35:07.513Z,24.34
2022-08-04T18:38:06.180Z,24.09
2022-08-04T18:40:36.761Z,24.60
2022-08-04T18:43:14.579Z,24.53
2022-08-04T18:45:50.907Z,24.83
2022-08-04T18:48:20.731Z,24.81
2022-08-04T18:51:09.249Z,24.72
2022-08-04T18:53:38.975Z,24.71
2022-08-04T18:56:27.313Z,25.04
2022-08-04T18:59:03.682Z,25.21
2022-08-04T19:02:13.455Z,25.65
2022-08-04T19:04:32.331Z,25.76
2022-08-04T19:07:29.185Z,26.28
2022-08-04T19:09:54.002Z,26.82
2022-08-04T19:12:28.630Z,27.14
2022-08-04T19:15:08.765Z,27.49
2022-08-04T19:17:53.456Z,27.95
2022-08-04T19:20:30.715Z,28.24
2022-08-04T19:24:28.420Z,28.88
2022-08-04T19:26:03.872Z,28.97
2022-08-04T19:28:36.033Z,29.15
2022-08-04T19:31:09.631Z,29.68
2022-08-04T19:33:58.494Z,29.69
2022-08-04T19:36:30.922Z,29.81
2022-08-04T19:39:02.029Z,29.92
2022-08-04T19:41:34.226Z,30.10
2022-08-04T19:44:23.567Z,30.26
2022-08-04T19:46:53.946Z,30.33
2022-08-04T19:50:05.088Z,30.76
2022-08-04T19:52:10.758Z,30.64
2022-08-04T19:54:40.755Z,30.19
2022-08-04T19:57:09.193Z,30.22
2022-08-04T19:59:48.347Z,30.33
2022-08-04T20:02:16.877Z,31.54
2022-08-04T20:04:45.409Z,31.74
2022-08-04T20:07:16.168Z,31.75
2022-08-04T20:09:53.733Z,32.40
2022-08-04T20:12:22.441Z,32.74
2022-08-04T20:14:53.436Z,33.05
2022-08-04T20:18:08.144Z,32.98
2022-08-04T20:20:14.868Z,33.50
2022-08-04T20:22:51.748Z,33.92
2022-08-04T20:25:36.669Z,33.54
2022-08-04T20:28:07.720Z,32.70
2022-08-04T20:30:39.012Z,32.94
2022-08-04T20:33:08.624Z,32.93
2022-08-04T20:36:00.651Z,33.43
2022-08-04T20:38:33.568Z,34.10
2022-08-04T20:41:05.225Z,34.66
2022-08-04T20:43:34.612Z,34.38
2022-08-04T20:46:03.421Z,35.18
2022-08-04T20:48:46.699Z,35.49
2022-08-04T20:51:31.449Z,37.01
2022-08-04T20:54:16.925Z,36.80
2022-08-04T20:56:53.436Z,36.36
2022-08-04T20:59:22.262Z,37.10
2022-08-04T21:01:53.851Z,36.60
2022-08-04T21:04:31.537Z,36.43
2022-08-04T21:07:01.223Z,36.36
2022-08-04T21:09:38.352Z,37.12
2022-08-04T21:12:26.796Z,37.21
2022-08-04T21:15:00.145Z,37.25
2022-08-04T21:17:57.019Z,37.94
2022-08-04T21:20:27.197Z,37.30
2022-08-04T21:22:59.444Z,37.32
2022-08-04T21:25:30.386Z,36.86
2022-08-04T21:28:04.045Z,36.58
2022-08-04T21:33:22.767Z,37.11
2022-08-04T21:35:54.387Z,36.69
2022-08-04T21:38:28.123Z,36.51
2022-08-04T21:41:01.479Z,36.67
2022-08-04T21:43:42.464Z,36.77
2022-08-04T21:46:15.502Z,36.85
2022-08-04T21:48:48.740Z,37.36
2022-08-04T21:51:59.871Z,37.44
2022-08-04T21:54:17.120Z,37.90
2022-08-04T21:56:51.025Z,38.71
2022-08-04T21:59:23.701Z,38.66
2022-08-04T22:02:01.925Z,38.61
2022-08-04T22:04:31.235Z,39.60
2022-08-04T22:07:02.930Z,39.67
2022-08-04T22:09:38.695Z,39.67
2022-08-04T22:12:12.401Z,40.01
2022-08-04T22:14:50.327Z,39.13
2022-08-04T22:17:28.418Z,39.99
2022-08-04T22:20:07.366Z,39.57
2022-08-04T22:23:03.384Z,39.88
2022-08-04T22:25:39.922Z,40.35
2022-08-04T22:28:14.747Z,41.00
2022-08-04T22:30:52.007Z,40.50
2022-08-04T22:33:22.735Z,39.94
2022-08-04T22:35:53.598Z,40.34
2022-08-04T22:38:42.058Z,40.44
2022-08-04T22:43:58.133Z,40.78
2022-08-04T22:46:30.893Z,40.73
2022-08-04T22:48:59.437Z,40.81
2022-08-04T22:51:30.068Z,41.00
2022-08-04T22:54:12.430Z,41.86
2022-08-04T22:56:45.752Z,41.23
2022-08-04T22:59:15.532Z,41.15
2022-08-04T23:01:58.892Z,41.10
2022-08-04T23:04:34.981Z,41.53
2022-08-04T23:07:09.037Z,41.10
2022-08-04T23:09:49.960Z,42.08
2022-08-04T23:12:26.461Z,42.71
2022-08-04T23:14:58.098Z,43.06
2022-08-04T23:17:47.623Z,42.45
2022-08-04T23:20:23.153Z,43.11
2022-08-04T23:22:55.924Z,43.62
2022-08-04T23:25:32.669Z,43.92
2022-08-04T23:28:05.982Z,43.79
2022-08-04T23:30:35.690Z,43.54
2022-08-04T23:33:07.831Z,44.51
2022-08-04T23:35:42.745Z,43.31
2022-08-04T23:38:31.666Z,43.86
2022-08-04T23:41:13.506Z,43.48
2022-08-04T23:43:54.973Z,43.39
2022-08-04T23:46:25.510Z,43.15
2022-08-04T23:49:01.141Z,42.57
2022-08-04T23:51:30.934Z,43.01
2022-08-04T23:54:04.996Z,42.55
2022-08-04T23:56:35.419Z,43.17
2022-08-04T23:59:23.167Z,43.04
